Time;durP1;ratioP1;P1;durP2;ratioP2;P2;SDS_P1;SDS_P2;PMS_P1;PMS_P2;Temp;Humidity;BMP_temperature;BMP_pressure;BME280_temperature;BME280_humidity;BME280_pressure;Samples;Min_cycle;Max_cycle;Signal;HPM_P1;HPM_P2
2021/11/17 02:28:20;;;;;;;7.70;5.40;;;8.30;99.90;;;;;;5035211;28;20193;-78
2021/11/17 02:31:01;;;;;;;9.60;5.80;;;8.30;99.90;;;;;;5026446;28;20215;-79
2021/11/17 02:33:53;;;;;;;11.98;5.90;;;8.30;99.90;;;;;;5034433;28;20239;-79
2021/11/17 02:36:35;;;;;;;9.73;6.20;;;8.40;99.90;;;;;;5034811;28;20386;-79
2021/11/17 02:39:29;;;;;;;8.30;5.55;;;8.30;99.90;;;;;;5033600;28;20675;-79
2021/11/17 02:42:11;;;;;;;9.13;5.05;;;8.30;99.90;;;;;;5035033;28;20278;-79
2021/11/17 02:44:54;;;;;;;9.38;6.13;;;8.40;99.90;;;;;;5033918;28;20193;-79
2021/11/17 02:47:41;;;;;;;9.75;6.20;;;8.30;99.90;;;;;;5033590;28;20212;-79
2021/11/17 02:50:26;;;;;;;8.52;5.35;;;8.30;99.90;;;;;;5033591;28;20196;-79
2021/11/17 02:53:03;;;;;;;10.45;6.05;;;8.30;99.90;;;;;;5034241;28;20229;-79
2021/11/17 02:55:50;;;;;;;10.43;5.90;;;8.30;99.90;;;;;;5033347;28;20200;-79
2021/11/17 02:58:36;;;;;;;10.80;6.53;;;8.30;99.90;;;;;;5032817;28;20196;-79
2021/11/17 03:01:25;;;;;;;10.57;7.10;;;8.20;99.90;;;;;;5032880;28;20705;-79
2021/11/17 03:04:05;;;;;;;11.20;6.70;;;8.20;99.90;;;;;;5032445;28;20227;-79
2021/11/17 03:06:48;;;;;;;10.45;5.97;;;8.20;99.90;;;;;;5032692;28;20196;-79
2021/11/17 03:09:28;;;;;;;10.57;5.90;;;8.10;99.90;;;;;;5034043;28;20203;-78
2021/11/17 03:12:11;;;;;;;8.77;5.88;;;8.10;99.90;;;;;;5037463;28;20199;-78
2021/11/17 03:15:01;;;;;;;9.45;6.05;;;8.10;99.90;;;;;;5036156;28;20195;-79
2021/11/17 03:17:53;;;;;;;9.52;6.90;;;8.10;99.90;;;;;;5036563;28;20519;-80
2021/11/17 03:20:34;;;;;;;11.73;6.40;;;8.00;99.90;;;;;;5037064;28;20199;-80
2021/11/17 03:23:13;;;;;;;9.95;7.00;;;8.00;99.90;;;;;;5037082;28;20233;-79
2021/11/17 03:25:56;;;;;;;13.90;6.88;;;8.00;99.90;;;;;;5038192;28;20283;-79
2021/11/17 03:28:38;;;;;;;13.32;6.30;;;8.00;99.90;;;;;;5038587;28;20502;-79
2021/11/17 03:31:18;;;;;;;11.43;6.70;;;7.90;99.90;;;;;;5037168;28;20189;-79
2021/11/17 03:34:11;;;;;;;10.40;6.50;;;8.00;99.90;;;;;;5037083;28;20229;-79
2021/11/17 03:36:54;;;;;;;11.25;6.43;;;8.00;99.90;;;;;;5037670;28;20273;-79
2021/11/17 03:39:38;;;;;;;11.60;7.00;;;7.90;99.90;;;;;;5037687;28;20286;-79
2021/11/17 03:42:22;;;;;;;10.35;6.65;;;7.90;99.90;;;;;;5036566;28;20231;-78
2021/11/17 03:45:07;;;;;;;9.43;5.68;;;7.90;99.90;;;;;;5037355;28;20192;-79
2021/11/17 03:47:56;;;;;;;11.82;7.22;;;7.90;99.90;;;;;;5037528;28;20523;-79
2021/11/17 03:50:41;;;;;;;10.07;6.63;;;7.90;99.90;;;;;;5036123;28;20531;-79
2021/11/17 03:53:21;;;;;;;10.75;7.18;;;7.90;99.90;;;;;;5038114;28;20258;-79
2021/11/17 03:56:01;;;;;;;9.85;5.70;;;7.90;99.90;;;;;;5037165;28;20203;-79
2021/11/17 03:58:41;;;;;;;10.90;7.53;;;7.90;99.90;;;;;;5036833;28;20200;-79
2021/11/17 04:01:29;;;;;;;11.57;6.30;;;7.90;99.90;;;;;;5036452;28;20216;-79
2021/11/17 04:04:18;;;;;;;10.40;6.22;;;7.90;99.90;;;;;;5038748;28;20321;-79
2021/11/17 04:07:04;;;;;;;12.23;7.68;;;7.90;99.90;;;;;;5007783;28;20220;-80
2021/11/17 04:09:43;;;;;;;9.93;5.70;;;7.90;99.90;;;;;;5038024;28;20193;-79
2021/11/17 04:12:26;;;;;;;11.05;5.93;;;7.90;99.90;;;;;;5037131;28;20246;-79
2021/11/17 04:15:05;;;;;;;11.23;6.70;;;7.90;99.90;;;;;;5036729;28;20279;-79
2021/11/17 04:17:44;;;;;;;11.13;6.72;;;7.90;99.90;;;;;;5036698;28;20201;-80
2021/11/17 04:20:28;;;;;;;10.98;6.43;;;7.90;99.90;;;;;;5037331;28;20188;-80
2021/11/17 04:23:08;;;;;;;9.63;5.50;;;8.00;99.90;;;;;;5038932;28;20236;-80
2021/11/17 04:25:51;;;;;;;12.02;7.35;;;8.00;99.90;;;;;;5037221;28;20202;-79
2021/11/17 04:28:34;;;;;;;9.98;6.57;;;7.90;99.90;;;;;;5036603;28;20298;-80
2021/11/17 04:31:39;;;;;;;10.93;6.68;;;8.00;99.90;;;;;;5035806;28;20202;-80
2021/11/17 04:34:40;;;;;;;13.07;7.30;;;7.90;99.90;;;;;;5005630;28;20237;-79
2021/11/17 04:37:22;;;;;;;12.40;6.28;;;8.00;99.90;;;;;;5038302;28;20192;-79
2021/11/17 04:40:25;;;;;;;9.77;6.50;;;8.10;99.90;;;;;;5040311;28;20202;-79
2021/11/17 04:43:17;;;;;;;9.00;5.95;;;8.30;99.90;;;;;;5057004;23;20337;-79
2021/11/17 04:45:56;;;;;;;10.35;6.30;;;8.50;99.90;;;;;;5043722;28;20278;-78
2021/11/17 04:48:48;;;;;;;11.35;6.57;;;8.20;99.90;;;;;;5043938;28;20331;-80
2021/11/17 04:51:34;;;;;;;11.32;7.10;;;8.10;99.90;;;;;;5039420;28;20295;-79
2021/11/17 04:54:26;;;;;;;9.63;6.30;;;8.00;99.90;;;;;;5037223;28;20233;-79
2021/11/17 04:57:18;;;;;;;8.90;5.63;;;8.20;99.90;;;;;;5036955;28;20208;-79
2021/11/17 05:00:11;;;;;;;10.00;6.15;;;8.50;99.90;;;;;;5039104;28;20216;-79
2021/11/17 05:02:53;;;;;;;10.43;5.28;;;8.60;99.90;;;;;;5038110;28;20209;-80
2021/11/17 05:05:41;;;;;;;9.32;6.03;;;8.50;99.90;;;;;;5036357;28;20192;-79
2021/11/17 05:08:17;;;;;;;8.70;5.20;;;8.40;99.90;;;;;;5038012;28;20215;-80
2021/11/17 05:10:58;;;;;;;8.60;5.80;;;8.30;99.90;;;;;;5037676;28;20196;-80
2021/11/17 05:13:35;;;;;;;9.15;6.40;;;8.20;99.90;;;;;;5036699;28;20233;-79
2021/11/17 05:16:20;;;;;;;9.60;5.78;;;8.20;99.90;;;;;;5036463;28;20197;-80
2021/11/17 05:18:54;;;;;;;9.82;6.57;;;8.10;99.90;;;;;;5036241;28;20193;-79
2021/11/17 05:21:34;;;;;;;11.15;6.05;;;8.10;99.90;;;;;;5036883;28;20226;-79
2021/11/17 05:24:17;;;;;;;10.93;6.30;;;7.80;99.90;;;;;;5036020;28;20267;-79
2021/11/17 05:26:58;;;;;;;8.82;6.20;;;8.00;99.90;;;;;;5037873;28;20215;-79
2021/11/17 05:29:43;;;;;;;8.38;5.32;;;8.20;99.90;;;;;;5036966;28;20188;-79
2021/11/17 05:32:36;;;;;;;9.20;5.72;;;8.20;99.90;;;;;;5035391;28;20281;-79
2021/11/17 05:35:17;;;;;;;9.77;5.10;;;8.20;99.90;;;;;;5036260;28;20196;-79
2021/11/17 05:37:54;;;;;;;9.57;5.70;;;8.10;99.90;;;;;;5039384;28;20195;-78
2021/11/17 05:40:37;;;;;;;9.32;5.68;;;8.10;99.90;;;;;;5044342;28;20216;-79
2021/11/17 05:43:17;;;;;;;10.88;5.45;;;8.00;99.90;;;;;;5054219;28;20226;-79
2021/11/17 05:46:08;;;;;;;9.73;5.90;;;8.00;99.90;;;;;;5043914;28;20218;-79
2021/11/17 05:48:45;;;;;;;9.85;5.38;;;8.00;99.90;;;;;;5041630;28;20190;-80
2021/11/17 05:51:26;;;;;;;13.27;6.47;;;8.00;99.90;;;;;;5040279;28;20188;-79
2021/11/17 05:54:25;;;;;;;9.82;5.85;;;8.00;99.90;;;;;;5036489;28;20228;-79
2021/11/17 05:57:09;;;;;;;9.43;6.60;;;7.90;99.90;;;;;;5036188;28;20216;-80
2021/11/17 05:59:52;;;;;;;9.90;5.53;;;7.90;99.90;;;;;;5036088;28;20680;-79
2021/11/17 06:02:41;;;;;;;10.70;6.10;;;8.20;99.90;;;;;;5036093;28;20216;-80
2021/11/17 06:05:07;;;;;;;10.63;5.45;;;8.40;99.90;;;;;;5035583;28;20282;-79
2021/11/17 06:07:34;;;;;;;11.10;5.45;;;8.40;99.90;;;;;;5035817;28;20310;-79
2021/11/17 06:10:08;;;;;;;9.27;5.57;;;8.30;99.90;;;;;;5035360;28;20307;-78
2021/11/17 06:12:35;;;;;;;8.82;5.38;;;8.30;99.90;;;;;;5035275;28;20188;-78
2021/11/17 06:15:04;;;;;;;10.25;6.00;;;8.00;99.90;;;;;;5035310;28;20233;-78
2021/11/17 06:17:31;;;;;;;10.00;5.53;;;7.90;99.90;;;;;;5040568;28;20700;-78
2021/11/17 06:19:58;;;;;;;10.65;5.88;;;7.90;99.90;;;;;;5037767;28;20651;-79
2021/11/17 06:22:30;;;;;;;8.70;5.90;;;8.10;99.90;;;;;;5036446;28;20230;-78
2021/11/17 06:24:59;;;;;;;10.63;5.55;;;8.10;99.90;;;;;;5036369;28;20241;-78
2021/11/17 06:27:30;;;;;;;8.45;5.53;;;8.10;99.90;;;;;;5037396;28;20204;-79
2021/11/17 06:29:58;;;;;;;9.55;5.18;;;8.20;99.90;;;;;;5037393;28;20195;-80
2021/11/17 06:32:26;;;;;;;8.70;5.30;;;8.10;99.90;;;;;;5038375;28;20208;-79
2021/11/17 06:34:55;;;;;;;9.00;5.60;;;8.00;99.90;;;;;;5038074;28;20230;-79
2021/11/17 06:37:24;;;;;;;6.38;4.30;;;8.00;99.90;;;;;;5038133;28;20203;-80
2021/11/17 06:39:53;;;;;;;8.30;4.85;;;7.50;99.90;;;;;;5035370;28;20220;-78
2021/11/17 06:42:22;;;;;;;7.82;4.55;;;7.90;99.90;;;;;;5035771;28;20408;-78
2021/11/17 06:44:51;;;;;;;8.63;4.38;;;8.00;99.90;;;;;;5041363;28;20329;-79
2021/11/17 06:47:18;;;;;;;6.88;4.05;;;8.30;99.90;;;;;;5043840;28;20212;-79
2021/11/17 06:49:45;;;;;;;9.65;5.10;;;8.30;99.90;;;;;;5040947;28;20212;-78
2021/11/17 06:52:14;;;;;;;7.28;4.13;;;8.00;99.90;;;;;;5040954;28;20301;-79
2021/11/17 06:54:41;;;;;;;9.65;5.30;;;8.00;99.90;;;;;;5040582;28;20233;-80
2021/11/17 06:57:08;;;;;;;10.25;5.13;;;8.10;99.90;;;;;;5039901;28;20714;-79
2021/11/17 06:59:35;;;;;;;9.35;5.82;;;7.90;99.90;;;;;;5041391;28;20315;-80
2021/11/17 07:02:05;;;;;;;9.50;5.88;;;8.10;99.90;;;;;;5040421;28;20574;-79
2021/11/17 07:04:33;;;;;;;7.68;4.30;;;7.90;99.90;;;;;;5040380;28;20310;-79
2021/11/17 07:06:59;;;;;;;8.55;4.80;;;7.90;99.90;;;;;;5041647;28;20212;-80
2021/11/17 07:09:26;;;;;;;7.93;4.72;;;8.00;99.90;;;;;;5041925;28;20188;-80
2021/11/17 07:11:53;;;;;;;10.95;5.15;;;7.90;99.90;;;;;;5042889;28;20225;-80
2021/11/17 07:14:22;;;;;;;8.48;4.60;;;7.80;99.90;;;;;;5040398;28;20222;-79
2021/11/17 07:16:50;;;;;;;7.97;4.65;;;7.80;99.90;;;;;;5040685;28;20212;-78
2021/11/17 07:19:24;;;;;;;10.15;4.63;;;7.90;99.90;;;;;;5038346;28;20202;-77
2021/11/17 07:21:52;;;;;;;11.07;5.00;;;8.00;99.90;;;;;;5039017;28;20219;-81
2021/11/17 07:24:18;;;;;;;9.55;5.43;;;8.30;99.90;;;;;;5037374;28;20232;-77
2021/11/17 07:26:45;;;;;;;7.40;4.80;;;8.10;99.90;;;;;;5040438;28;20210;-77
2021/11/17 07:29:12;;;;;;;11.90;5.20;;;7.90;99.90;;;;;;5037297;28;20561;-77
2021/11/17 07:31:39;;;;;;;8.55;4.70;;;8.00;99.90;;;;;;5037850;28;20208;-78
2021/11/17 07:34:06;;;;;;;11.10;4.88;;;7.90;99.90;;;;;;5037331;28;20228;-78
2021/11/17 07:36:35;;;;;;;9.02;5.15;;;7.80;99.90;;;;;;5038248;28;20218;-77
2021/11/17 07:39:03;;;;;;;10.95;5.90;;;7.80;99.90;;;;;;5036990;28;20212;-77
2021/11/17 07:41:30;;;;;;;8.68;5.35;;;8.10;99.90;;;;;;5037040;28;20555;-83
2021/11/17 07:43:57;;;;;;;7.43;4.50;;;8.20;99.90;;;;;;5037033;28;20672;-78
2021/11/17 07:46:24;;;;;;;9.98;5.93;;;8.10;99.90;;;;;;5036168;28;20243;-76
2021/11/17 07:48:51;;;;;;;10.63;6.72;;;8.00;99.90;;;;;;5036582;28;20210;-77
2021/11/17 07:51:18;;;;;;;8.52;5.20;;;7.90;99.90;;;;;;5035643;28;20293;-77
2021/11/17 07:53:47;;;;;;;9.52;5.82;;;7.60;99.90;;;;;;5041107;28;20234;-79
2021/11/17 07:56:15;;;;;;;9.95;5.75;;;7.40;99.90;;;;;;5044012;28;20211;-80
2021/11/17 07:58:44;;;;;;;10.80;5.30;;;7.90;99.90;;;;;;5044977;28;20207;-79
2021/11/17 08:01:13;;;;;;;12.65;7.00;;;7.90;99.90;;;;;;5039258;28;20235;-77
2021/11/17 08:03:42;;;;;;;6.72;4.40;;;8.00;99.90;;;;;;5040445;28;20237;-80
2021/11/17 08:06:12;;;;;;;9.30;4.43;;;8.10;99.90;;;;;;5040710;28;20203;-78
2021/11/17 08:08:40;;;;;;;9.18;4.78;;;8.30;99.90;;;;;;5038801;28;20729;-80
2021/11/17 08:11:11;;;;;;;9.90;5.18;;;8.60;99.90;;;;;;5039715;28;20214;-78
2021/11/17 08:13:38;;;;;;;11.10;5.80;;;8.50;99.90;;;;;;5038823;28;20287;-79
2021/11/17 08:16:06;;;;;;;8.40;4.90;;;8.30;99.90;;;;;;5036857;28;20216;-77
2021/11/17 08:18:33;;;;;;;10.57;4.85;;;8.30;99.90;;;;;;5035762;28;20297;-76
2021/11/17 08:21:01;;;;;;;7.55;4.45;;;8.30;99.90;;;;;;5036772;28;20219;-78
2021/11/17 08:23:28;;;;;;;11.60;5.38;;;8.30;99.90;;;;;;5036553;28;20241;-78
2021/11/17 08:25:55;;;;;;;10.75;5.35;;;8.30;99.90;;;;;;5035749;28;20212;-77
2021/11/17 08:28:23;;;;;;;8.48;4.90;;;8.30;99.90;;;;;;5035633;28;20242;-78
2021/11/17 08:30:51;;;;;;;10.25;5.55;;;8.40;99.90;;;;;;5037260;28;20236;-78
2021/11/17 08:33:19;;;;;;;8.88;5.80;;;8.40;99.90;;;;;;5035643;28;20223;-79
2021/11/17 08:35:46;;;;;;;7.45;4.20;;;8.40;99.90;;;;;;5035285;28;20204;-77
2021/11/17 08:38:16;;;;;;;9.43;4.57;;;8.40;99.90;;;;;;5034840;28;20299;-77
2021/11/17 08:40:46;;;;;;;10.25;4.70;;;8.40;99.90;;;;;;5034923;28;20295;-77
2021/11/17 08:43:14;;;;;;;8.52;4.65;;;8.40;99.90;;;;;;5034650;28;20227;-78
2021/11/17 08:45:43;;;;;;;8.25;4.70;;;8.50;99.90;;;;;;5035582;28;20207;-80
2021/11/17 08:48:11;;;;;;;9.35;5.05;;;8.50;99.90;;;;;;5037085;28;20213;-78
2021/11/17 08:50:39;;;;;;;7.82;3.72;;;8.50;99.90;;;;;;5036654;28;20212;-77
2021/11/17 08:53:07;;;;;;;7.57;4.07;;;8.40;99.90;;;;;;5035906;28;20317;-77
2021/11/17 08:55:36;;;;;;;6.40;2.53;;;8.60;99.90;;;;;;5035272;28;20214;-77
2021/11/17 08:58:04;;;;;;;5.90;3.30;;;8.70;99.90;;;;;;5038017;28;20236;-78
2021/11/17 09:00:34;;;;;;;7.28;3.50;;;8.70;99.90;;;;;;5047306;28;20211;-77
2021/11/17 09:03:05;;;;;;;7.22;2.90;;;8.70;99.90;;;;;;5035603;28;20318;-77
2021/11/17 09:05:35;;;;;;;7.22;2.80;;;8.70;99.90;;;;;;5034668;28;20225;-77
2021/11/17 09:08:03;;;;;;;4.55;2.35;;;8.60;99.90;;;;;;5033787;28;20219;-77
2021/11/17 09:10:32;;;;;;;4.78;2.15;;;8.60;99.90;;;;;;5034565;28;20617;-77
2021/11/17 09:12:59;;;;;;;5.38;2.28;;;8.70;99.90;;;;;;5037448;28;20224;-80
2021/11/17 09:15:28;;;;;;;7.97;2.20;;;8.50;99.90;;;;;;5037863;28;20208;-80
2021/11/17 09:17:56;;;;;;;4.72;1.85;;;8.30;99.90;;;;;;5037919;28;20208;-80
2021/11/17 09:20:25;;;;;;;3.72;1.50;;;8.40;99.90;;;;;;5038114;28;20207;-80
2021/11/17 09:22:52;;;;;;;3.95;2.13;;;8.40;99.90;;;;;;5037263;28;20247;-80
2021/11/17 09:25:21;;;;;;;4.55;2.25;;;8.40;99.90;;;;;;5037039;28;20208;-80
2021/11/17 09:27:48;;;;;;;5.03;1.70;;;8.30;99.90;;;;;;5038120;28;20231;-80
2021/11/17 09:30:19;;;;;;;4.22;2.60;;;8.30;99.90;;;;;;5037723;28;20204;-79
2021/11/17 09:32:46;;;;;;;3.30;1.60;;;8.20;99.90;;;;;;5037859;28;20193;-79
2021/11/17 09:35:15;;;;;;;4.15;1.85;;;8.20;99.90;;;;;;5040149;28;20638;-79
2021/11/17 09:37:44;;;;;;;4.50;2.08;;;8.30;99.90;;;;;;5041265;28;20208;-79
2021/11/17 09:40:15;;;;;;;4.30;2.13;;;8.40;99.90;;;;;;5043302;28;20216;-79
2021/11/17 09:42:43;;;;;;;4.60;2.28;;;8.00;99.90;;;;;;5045124;28;20295;-79
2021/11/17 09:45:10;;;;;;;5.20;2.25;;;8.10;99.90;;;;;;5040077;28;20210;-79
2021/11/17 09:47:42;;;;;;;4.80;2.33;;;8.10;99.90;;;;;;5040236;28;20208;-79
2021/11/17 09:50:13;;;;;;;3.92;1.90;;;8.00;99.90;;;;;;5037239;28;20611;-80
2021/11/17 09:52:44;;;;;;;4.80;2.00;;;8.20;99.90;;;;;;5036853;28;20189;-79
2021/11/17 09:55:16;;;;;;;3.60;1.88;;;8.20;99.90;;;;;;5037163;28;20568;-80
2021/11/17 09:57:45;;;;;;;6.20;2.45;;;8.30;99.90;;;;;;5037282;28;20303;-79
2021/11/17 10:00:17;;;;;;;4.45;2.15;;;8.30;99.90;;;;;;5037087;28;20227;-80
2021/11/17 10:02:52;;;;;;;4.90;2.33;;;8.40;99.90;;;;;;5035810;28;20217;-78
2021/11/17 10:05:23;;;;;;;5.28;2.53;;;8.50;99.90;;;;;;5034490;28;20198;-78
2021/11/17 10:13:26;;;;;;;3.40;1.83;;;8.70;99.90;;;;;;5036948;28;20216;-78
2021/11/17 10:15:55;;;;;;;3.50;1.80;;;8.60;99.90;;;;;;5038395;28;20262;-78
2021/11/17 10:18:39;;;;;;;4.72;2.53;;;8.70;99.90;;;;;;5040315;28;20209;-78
2021/11/17 10:21:11;;;;;;;4.07;1.60;;;8.70;99.90;;;;;;5036148;28;20568;-78
2021/11/17 10:23:55;;;;;;;5.40;2.25;;;8.70;99.90;;;;;;5034509;28;20233;-78
2021/11/17 10:26:22;;;;;;;11.40;2.22;;;8.70;99.90;;;;;;5033109;28;20592;-77
2021/11/17 10:28:52;;;;;;;4.60;2.20;;;8.90;99.90;;;;;;5033523;28;20203;-76
2021/11/17 10:31:22;;;;;;;5.35;1.88;;;8.80;99.90;;;;;;5032983;28;20202;-77
2021/11/17 10:34:07;;;;;;;4.03;1.92;;;8.80;99.90;;;;;;5033109;28;20226;-77
2021/11/17 10:36:51;;;;;;;3.72;1.85;;;8.60;99.90;;;;;;5034310;28;20193;-76
2021/11/17 10:39:25;;;;;;;3.90;2.00;;;8.70;99.90;;;;;;5033276;28;20189;-77
2021/11/17 10:41:59;;;;;;;4.45;1.80;;;8.90;99.90;;;;;;5033129;28;20198;-77
2021/11/17 10:44:47;;;;;;;4.88;2.20;;;8.80;99.90;;;;;;5054056;23;20241;-77
2021/11/17 10:47:22;;;;;;;3.80;1.80;;;8.70;99.90;;;;;;5032946;28;20239;-76
2021/11/17 10:49:52;;;;;;;4.60;2.35;;;8.80;99.90;;;;;;5033719;28;20207;-76
2021/11/17 10:52:26;;;;;;;4.15;1.88;;;8.90;99.90;;;;;;5034888;28;20270;-77
2021/11/17 10:54:56;;;;;;;3.88;1.88;;;8.80;99.90;;;;;;5033513;28;20300;-77
2021/11/17 10:57:25;;;;;;;3.97;1.73;;;8.80;99.90;;;;;;5033291;28;20299;-77
2021/11/17 10:59:53;;;;;;;5.53;2.10;;;8.80;99.90;;;;;;5033028;28;20644;-77
2021/11/17 11:02:22;;;;;;;4.55;1.83;;;8.90;99.90;;;;;;5032897;28;20600;-77
2021/11/17 11:04:52;;;;;;;4.28;1.88;;;8.80;99.90;;;;;;5033046;28;20612;-78
2021/11/17 11:07:23;;;;;;;4.10;1.90;;;8.90;99.90;;;;;;5034028;28;20209;-78
2021/11/17 11:09:54;;;;;;;5.80;2.05;;;9.00;99.90;;;;;;5034279;28;20193;-77
2021/11/17 11:12:26;;;;;;;4.05;1.73;;;8.90;99.90;;;;;;5034968;28;20193;-77
2021/11/17 11:14:56;;;;;;;3.30;1.50;;;8.80;99.90;;;;;;5035039;28;20316;-77
2021/11/17 11:17:31;;;;;;;3.80;1.85;;;8.80;99.90;;;;;;5033673;28;20205;-77
2021/11/17 11:20:31;;;;;;;4.07;1.90;;;9.00;99.90;;;;;;5035429;28;20200;-79
2021/11/17 11:23:15;;;;;;;3.70;1.08;;;9.00;99.90;;;;;;5035722;28;20551;-78
2021/11/17 11:25:48;;;;;;;7.23;2.70;;;8.90;99.90;;;;;;5038447;28;20232;-78
2021/11/17 11:28:32;;;;;;;4.38;1.88;;;9.10;99.90;;;;;;5042593;28;20437;-79
2021/11/17 11:31:24;;;;;;;11.00;1.50;;;8.90;99.90;;;;;;5035313;28;20220;-77
2021/11/17 11:34:11;;;;;;;3.07;1.40;;;9.10;99.90;;;;;;5041217;28;20956;-78
2021/11/17 11:36:44;;;;;;;3.45;1.10;;;9.10;99.90;;;;;;5044511;28;20456;-78
2021/11/17 11:39:36;;;;;;;2.70;1.10;;;9.40;99.90;;;;;;5037949;28;20299;-76
2021/11/17 11:42:24;;;;;;;4.95;1.42;;;9.20;99.90;;;;;;5036530;28;20562;-77
2021/11/17 11:44:54;;;;;;;4.93;1.30;;;9.20;99.90;;;;;;5003108;28;20295;-77
2021/11/17 11:47:44;;;;;;;3.77;1.60;;;8.90;99.90;;;;;;5036764;28;20213;-77
2021/11/17 11:50:53;;;;;;;4.70;1.80;;;8.90;99.90;;;;;;5035536;28;20487;-79
2021/11/17 11:53:25;;;;;;;3.90;1.73;;;9.10;99.90;;;;;;5011471;28;20964;-78
2021/11/17 11:56:02;;;;;;;3.42;1.40;;;9.10;99.90;;;;;;5041388;28;20303;-78
2021/11/17 11:58:40;;;;;;;3.17;1.20;;;9.20;99.90;;;;;;5038564;28;20299;-78
2021/11/17 12:01:11;;;;;;;5.28;2.20;;;9.50;99.90;;;;;;5039694;28;20197;-79
2021/11/17 12:03:44;;;;;;;3.27;1.40;;;9.40;99.90;;;;;;5041296;28;20709;-78
2021/11/17 12:06:16;;;;;;;3.40;1.30;;;9.30;99.90;;;;;;5043369;28;20463;-78
2021/11/17 12:08:48;;;;;;;4.03;1.30;;;9.20;99.90;;;;;;5041984;28;20199;-78
2021/11/17 12:11:17;;;;;;;3.85;1.73;;;9.20;99.90;;;;;;5044215;28;20205;-78
2021/11/17 12:13:57;;;;;;;2.90;1.10;;;9.10;99.90;;;;;;5049415;28;20246;-78
2021/11/17 12:16:26;;;;;;;3.20;1.20;;;9.00;99.90;;;;;;5043396;28;20310;-78
2021/11/17 12:18:55;;;;;;;3.43;1.77;;;9.10;99.90;;;;;;5039044;28;20238;-78
2021/11/17 12:21:26;;;;;;;2.90;1.10;;;9.00;99.90;;;;;;5039931;28;20506;-78
2021/11/17 12:24:08;;;;;;;3.20;1.50;;;9.00;99.90;;;;;;5036194;28;20236;-78
2021/11/17 12:26:37;;;;;;;2.63;1.20;;;8.90;99.90;;;;;;5036088;28;20198;-77
2021/11/17 12:29:11;;;;;;;3.22;1.33;;;8.80;99.90;;;;;;5034596;28;20208;-77
2021/11/17 12:31:49;;;;;;;3.08;1.50;;;8.70;99.90;;;;;;5034845;28;20239;-77
2021/11/17 12:34:19;;;;;;;3.55;1.60;;;8.70;99.90;;;;;;5034979;28;20194;-76
2021/11/17 12:37:02;;;;;;;4.90;1.77;;;8.70;99.90;;;;;;5035344;28;20538;-76
2021/11/17 12:39:33;;;;;;;7.57;2.15;;;8.70;99.90;;;;;;5034975;28;20200;-77
2021/11/17 12:42:04;;;;;;;6.80;2.47;;;8.60;99.90;;;;;;5035105;28;20195;-77
2021/11/17 12:44:35;;;;;;;5.90;1.45;;;8.50;99.90;;;;;;5034623;28;20244;-76
2021/11/17 12:47:08;;;;;;;2.95;1.40;;;8.70;99.90;;;;;;5035519;28;20200;-77
2021/11/17 12:49:48;;;;;;;6.05;1.70;;;8.70;99.90;;;;;;5035395;28;20765;-76
2021/11/17 12:52:20;;;;;;;4.47;1.70;;;8.80;99.90;;;;;;5035185;28;20196;-76
2021/11/17 12:54:51;;;;;;;3.05;1.30;;;8.80;99.90;;;;;;5036006;28;20228;-75
2021/11/17 12:57:20;;;;;;;3.97;1.70;;;9.00;99.90;;;;;;5035459;28;20189;-78
2021/11/17 12:59:49;;;;;;;2.80;1.15;;;8.80;99.90;;;;;;5035915;28;20220;-75
2021/11/17 13:02:43;;;;;;;3.35;1.40;;;8.90;99.90;;;;;;5034489;28;20270;-76
2021/11/17 13:05:22;;;;;;;3.30;1.60;;;9.00;99.90;;;;;;5035021;28;20285;-76
2021/11/17 13:07:50;;;;;;;2.92;1.20;;;8.80;99.90;;;;;;5035416;28;20229;-77
2021/11/17 13:10:29;;;;;;;3.45;1.30;;;9.00;99.90;;;;;;5034557;28;20209;-76
2021/11/17 13:13:09;;;;;;;4.32;1.55;;;9.10;99.90;;;;;;5033979;28;20279;-77
2021/11/17 13:15:41;;;;;;;3.20;1.58;;;9.00;99.90;;;;;;5034590;28;20229;-77
2021/11/17 13:18:22;;;;;;;3.42;1.08;;;9.00;99.90;;;;;;5034403;28;20231;-77
2021/11/17 13:20:49;;;;;;;2.75;1.05;;;9.00;99.90;;;;;;5034133;28;20275;-77
2021/11/17 13:23:30;;;;;;;4.65;1.70;;;9.00;99.90;;;;;;5034103;28;20208;-77
2021/11/17 13:26:11;;;;;;;6.60;1.20;;;9.00;99.90;;;;;;5034525;28;20607;-77
2021/11/17 13:28:40;;;;;;;3.38;1.20;;;9.00;99.90;;;;;;5034287;28;20193;-77
2021/11/17 13:31:31;;;;;;;2.90;1.35;;;8.80;99.90;;;;;;5033799;28;20295;-77
2021/11/17 13:33:59;;;;;;;3.42;1.58;;;8.60;99.90;;;;;;5035046;28;20234;-79
2021/11/17 13:36:42;;;;;;;3.38;1.60;;;8.50;99.90;;;;;;5034234;28;20314;-77
2021/11/17 13:39:10;;;;;;;3.25;1.55;;;8.60;99.90;;;;;;5034932;28;20669;-77
2021/11/17 13:41:41;;;;;;;4.07;1.50;;;8.50;99.90;;;;;;5036340;28;20239;-77
2021/11/17 13:44:08;;;;;;;3.90;1.38;;;8.80;99.90;;;;;;5036567;28;20213;-77
2021/11/17 13:46:36;;;;;;;3.17;1.33;;;8.80;99.90;;;;;;5035628;28;20218;-78
2021/11/17 13:49:04;;;;;;;3.25;1.55;;;8.70;99.90;;;;;;5039160;28;20255;-78
2021/11/17 13:51:31;;;;;;;4.75;2.55;;;8.60;99.90;;;;;;5037828;28;20701;-79
2021/11/17 13:53:58;;;;;;;4.93;2.25;;;8.60;99.90;;;;;;5037314;28;20255;-78
2021/11/17 13:56:27;;;;;;;3.95;1.80;;;8.70;99.90;;;;;;5039594;28;20267;-79
2021/11/17 13:58:56;;;;;;;4.30;1.50;;;8.70;99.90;;;;;;5037882;28;20272;-80
2021/11/17 14:01:24;;;;;;;2.85;1.35;;;8.90;99.90;;;;;;5037488;28;20207;-79
2021/11/17 14:03:52;;;;;;;4.38;1.73;;;8.90;99.90;;;;;;5036893;28;20204;-78
2021/11/17 14:06:22;;;;;;;5.18;1.77;;;8.70;99.90;;;;;;5037251;28;20235;-79
2021/11/17 14:08:49;;;;;;;3.70;1.63;;;8.70;99.90;;;;;;5038348;28;20212;-79
2021/11/17 14:11:17;;;;;;;3.85;1.58;;;8.80;99.90;;;;;;5037025;28;20201;-78
2021/11/17 14:13:45;;;;;;;2.92;1.17;;;9.00;99.90;;;;;;5037653;28;20211;-79
2021/11/17 14:16:15;;;;;;;3.45;1.73;;;9.00;99.90;;;;;;5036173;28;20323;-78
2021/11/17 14:18:42;;;;;;;3.78;1.70;;;8.80;99.90;;;;;;5036049;28;20244;-78
2021/11/17 14:21:10;;;;;;;3.40;1.23;;;8.80;99.90;;;;;;5036298;28;20300;-77
2021/11/17 14:23:38;;;;;;;3.75;1.80;;;8.80;99.90;;;;;;5035206;28;20218;-81
2021/11/17 14:26:08;;;;;;;3.00;1.23;;;8.90;99.90;;;;;;5036005;28;20239;-79
2021/11/17 14:28:40;;;;;;;3.60;1.50;;;9.10;99.90;;;;;;5035767;28;20436;-78
2021/11/17 14:31:11;;;;;;;3.97;2.20;;;9.10;99.90;;;;;;5035273;28;20443;-78
2021/11/17 14:33:43;;;;;;;5.78;2.65;;;9.00;99.90;;;;;;5034851;28;20268;-82
2021/11/17 14:36:12;;;;;;;5.30;2.95;;;8.80;99.90;;;;;;5035037;28;20571;-79
2021/11/17 14:38:39;;;;;;;5.20;2.22;;;8.80;99.90;;;;;;5035258;28;20669;-78
2021/11/17 14:41:06;;;;;;;5.75;2.60;;;8.90;99.90;;;;;;5036954;28;20208;-78
2021/11/17 14:43:33;;;;;;;4.03;2.13;;;8.90;99.90;;;;;;5035546;28;20702;-79
2021/11/17 14:46:00;;;;;;;4.35;2.53;;;8.80;99.90;;;;;;5036679;28;21008;-78
2021/11/17 14:48:28;;;;;;;4.00;2.00;;;9.00;99.90;;;;;;5036966;28;20212;-78
2021/11/17 14:50:57;;;;;;;5.47;2.60;;;8.80;99.90;;;;;;5036590;28;20212;-79
2021/11/17 14:53:23;;;;;;;6.32;2.63;;;8.70;99.90;;;;;;5037366;28;20550;-78
2021/11/17 14:55:51;;;;;;;8.35;3.10;;;8.60;99.90;;;;;;5036623;28;20320;-78
2021/11/17 14:58:17;;;;;;;4.80;2.47;;;8.70;99.90;;;;;;5036412;28;20596;-82
2021/11/17 15:00:48;;;;;;;5.13;2.97;;;8.70;99.90;;;;;;5034289;28;20205;-78
2021/11/17 15:03:15;;;;;;;4.90;3.10;;;8.70;99.90;;;;;;5034802;28;20193;-77
2021/11/17 15:05:42;;;;;;;7.55;3.45;;;8.70;99.90;;;;;;5038946;28;20247;-78
2021/11/17 15:08:11;;;;;;;7.00;2.70;;;8.70;99.90;;;;;;5047130;28;20552;-78
2021/11/17 15:10:38;;;;;;;5.00;3.00;;;8.70;99.90;;;;;;5055199;28;20240;-78
2021/11/17 15:13:06;;;;;;;4.40;2.40;;;8.80;99.90;;;;;;5046785;28;20203;-78
2021/11/17 15:15:36;;;;;;;4.40;2.60;;;8.80;99.90;;;;;;5049944;28;20738;-79
2021/11/17 15:18:04;;;;;;;5.30;2.67;;;8.90;99.90;;;;;;5050050;28;20300;-78
2021/11/17 15:20:32;;;;;;;5.00;2.60;;;9.10;99.90;;;;;;5044285;28;20280;-77
2021/11/17 15:22:59;;;;;;;4.30;2.30;;;8.90;99.90;;;;;;5047486;28;20236;-78
2021/11/17 15:25:31;;;;;;;4.88;2.30;;;8.80;99.90;;;;;;5046162;28;20275;-78
2021/11/17 15:28:00;;;;;;;5.50;3.25;;;8.80;99.90;;;;;;5039444;28;20300;-79
2021/11/17 15:30:30;;;;;;;5.18;3.22;;;8.70;99.90;;;;;;5038493;28;20299;-77
2021/11/17 15:32:57;;;;;;;7.60;3.72;;;8.70;99.90;;;;;;5036255;28;20674;-78
2021/11/17 15:35:28;;;;;;;5.78;2.78;;;8.60;99.90;;;;;;5035411;28;20307;-76
2021/11/17 15:37:56;;;;;;;5.30;2.40;;;8.70;99.90;;;;;;5036212;28;20215;-76
2021/11/17 15:40:26;;;;;;;5.90;2.47;;;8.70;99.90;;;;;;5039148;28;20620;-78
2021/11/17 15:42:55;;;;;;;7.72;2.60;;;8.70;99.90;;;;;;5040668;28;20212;-78
2021/11/17 15:45:22;;;;;;;4.80;2.42;;;8.70;99.90;;;;;;5040940;28;20616;-79
2021/11/17 15:47:51;;;;;;;5.32;2.65;;;8.90;99.90;;;;;;5037791;28;20571;-77
2021/11/17 15:50:23;;;;;;;5.65;2.80;;;8.80;99.90;;;;;;5036850;28;20637;-78
2021/11/17 15:52:50;;;;;;;5.28;2.53;;;8.70;99.90;;;;;;5035967;28;20194;-77
2021/11/17 15:55:19;;;;;;;6.35;3.78;;;8.80;99.90;;;;;;5037037;28;20254;-77
2021/11/17 15:57:46;;;;;;;5.53;3.60;;;8.90;99.90;;;;;;5036412;28;20300;-76
2021/11/17 16:00:18;;;;;;;6.30;3.47;;;8.90;99.90;;;;;;5035252;28;20208;-77
2021/11/17 16:02:45;;;;;;;6.20;3.07;;;8.80;99.90;;;;;;5034800;28;20647;-77
2021/11/17 16:05:12;;;;;;;6.20;3.28;;;8.80;99.90;;;;;;5038024;28;20820;-87